الصفحة الرئيسية
METAR-TAF:

METAR-TAF

مطار :

فور دو فرانس, مارتينيك

دائرة عرض: 14-36N, خط طول: 061-00W, ارتفاع: 5 متر

مراقبة الطقس الحالي

تاريخ ووقت الإصدار 30 دقيقة قبل الساعة 13:30UTC
ريح 13 عقدة من الشرق/الجنوب الشرقي, الاتجاه يتراوح بين الشرق و الجنوب/الجنوب الشرقي
درجة الحرارة 31°درجة مئوية
الرطوبة 59%
ضغط 1015 hPa
الرؤية 10 كم أو أكثر
غيوم مفككة على ارتفاع 3300 قدم

METAR: TFFF 251330Z AUTO 12013KT 080V150 9999 BKN033 31/22 Q1015 NOSIG

زمن: 10:00 (14:00 UTC)

توقعات

تاريخ ووقت الإصدار 3ساعات و 0 دقيقة قبل الساعة 11:00UTC
التوقعات صالحة من25 الساعة 12 UTC إلى 26 الساعة 12 UTC
ريح 12 عقدة من الشرق
الرؤية 10 كم أو أكثر
غيوم متفرقة على ارتفاع 3000 قدم
مؤقت
من 26 الساعة 06 UTC إلى 26 الساعة 10 UTC
الرؤية: 4000 متر
غيوم مفككة على ارتفاع 1500 قدم, مزن ركامية عمودية.
غيوم مفككة على ارتفاع 3000 قدم
زخات من المطر,

TAF: TFFF 251100Z 2512/2612 10012KT 9999 SCT030 TEMPO 2606/2610 4000 SHRA BKN015TCU BKN030

أرصاد الطقس والتوقعات من أكثر من 4000 مطار (تقارير الطقس للمطار METAR والتنبؤ بالطقس بالمطارTAF).

المحطات المتاحة هي النقط الصفراء والحمراء على الخريطة.

حرك المؤشر فوق النقطة لمعرفة اسم المحطة.

ثم انقر لمعرفة أرصاد وتوقعات الطقس.

لتغيير الخارطة: اضغط على الأزرار الخضراء مع رمز الصليب الأسود للتكبير. على الزر الأخضر مع شرطة للتصغير، أو على الأسهم الخضراء للخرائط المجاورة.


METAR-TAF: